Grady, Oklahoma
Current Conditions -  °F | °C
As of 2:55 AM on Thursday 23 Oct 2014 (Local Time) from K0F2 Reporting Station
Overcast Overcast  
Wind Chill: 64°   Ceiling: 7000
Heat Index: 64°   Visibility: 10mi
Dew Point: 59°   Wind: 3mph
Humidity: 82%   Direction: 120°ESE
Pressure: 30.12"   Gusts: NA
Location:  33.908°N, 97.9293°W
Report Text: K0F2 230755Z AUTO 12003KT 10SM OVC070 18/15 A3012 RMK AO2 T01800149
Loading
Personal Weather Stations






























Interactive Weather Map
Tropical Storm Tracking
New forecast layout! Learn more

10-Day Weather Forecast

Advertisements
Track Severe Weather on mobile